Time;durP1;ratioP1;P1;durP2;ratioP2;P2;SDS_P1;SDS_P2;PMS_P1;PMS_P2;Temp;Humidity;BMP_temperature;BMP_pressure;BME280_temperature;BME280_humidity;BME280_pressure;Samples;Min_cycle;Max_cycle;Signal;HPM_P1;HPM_P2
2022/09/09 00:00:30;;;;;;;;;;;;;;;;;;4970026;28;1391;-72
2022/09/09 00:02:59;;;;;;;;;;;;;;;;;;4969225;28;981;-70
2022/09/09 00:05:29;;;;;;;;;;;;;;;;;;4969952;28;1915;-71
2022/09/09 00:07:56;;;;;;;;;;;;;;;;;;4969945;28;914;-71
2022/09/09 00:10:23;;;;;;;;;;;;;;;;;;4969652;28;1318;-71
2022/09/09 00:12:52;;;;;;;;;;;;;;;;;;4969569;28;997;-70
2022/09/09 00:15:20;;;;;;;;;;;;;;;;;;4969730;28;862;-71
2022/09/09 00:17:47;;;;;;;;;;;;;;;;;;4952454;28;1084;-70
2022/09/09 00:20:15;;;;;;;;;;;;;;;;;;4969526;28;1428;-70
2022/09/09 00:22:45;;;;;;;;;;;;;;;;;;4968992;28;1127;-71
2022/09/09 00:25:12;;;;;;;;;;;;;;;;;;4969678;28;1911;-71
2022/09/09 00:27:41;;;;;;;;;;;;;;;;;;4969681;28;1064;-72
2022/09/09 00:30:14;;;;;;;;;;;;;;;;;;4968675;28;1523;-72
2022/09/09 00:32:40;;;;;;;;;;;;;;;;;;4951801;28;1164;-71
2022/09/09 00:35:14;;;;;;;;;;;;;;;;;;4969599;28;811;-71
2022/09/09 00:37:41;;;;;;;;;;;;;;;;;;4952357;28;1320;-70
2022/09/09 00:40:14;;;;;;;;;;;;;;;;;;4969183;28;1380;-72
2022/09/09 00:42:42;;;;;;;;;;;;;;;;;;4969235;28;756;-70
2022/09/09 00:45:12;;;;;;;;;;;;;;;;;;4969164;28;1910;-71
2022/09/09 00:47:44;;;;;;;;;;;;;;;;;;4951912;28;1203;-71
2022/09/09 00:50:14;;;;;;;;;;;;;;;;;;4969089;28;1414;-71
2022/09/09 00:52:41;;;;;;;;;;;;;;;;;;4951455;28;1363;-70
2022/09/09 00:55:11;;;;;;;;;;;;;;;;;;4956279;28;1259;-71
2022/09/09 00:57:38;;;;;;;;;;;;;;;;;;4970962;28;1727;-71
2022/09/09 01:00:18;;;;;;;;;;;;;;;;;;4971159;28;1479;-71
2022/09/09 01:02:47;;;;;;;;;;;;;;;;;;4970777;28;930;-71
2022/09/09 01:05:14;;;;;;;;;;;;;;;;;;4988350;28;1976;-71
2022/09/09 01:07:41;;;;;;;;;;;;;;;;;;4971043;28;1467;-71
2022/09/09 01:10:08;;;;;;;;;;;;;;;;;;4988478;28;1377;-71
2022/09/09 01:12:39;;;;;;;;;;;;;;;;;;4970534;28;1341;-71
2022/09/09 01:15:09;;;;;;;;;;;;;;;;;;4969630;28;1250;-71
2022/09/09 01:17:48;;;;;;;;;;;;;;;;;;4970817;28;1342;-72
2022/09/09 01:20:17;;;;;;;;;;;;;;;;;;4971020;28;1408;-71
2022/09/09 01:22:51;;;;;;;;;;;;;;;;;;4970687;28;1217;-71
2022/09/09 01:25:22;;;;;;;;;;;;;;;;;;4971047;28;1970;-70
2022/09/09 01:28:14;;;;;;;;;;;;;;;;;;4970743;28;1130;-71
2022/09/09 01:30:41;;;;;;;;;;;;;;;;;;4987939;28;1431;-71
2022/09/09 01:33:11;;;;;;;;;;;;;;;;;;4970479;28;1348;-71
2022/09/09 01:35:39;;;;;;;;;;;;;;;;;;4970486;28;1337;-70
2022/09/09 01:38:05;;;;;;;;;;;;;;;;;;4970863;28;1183;-71
2022/09/09 01:40:32;;;;;;;;;;;;;;;;;;4970488;28;1318;-71
2022/09/09 01:42:59;;;;;;;;;;;;;;;;;;4973540;28;1077;-71
2022/09/09 01:45:27;;;;;;;;;;;;;;;;;;4974166;28;1962;-71
2022/09/09 01:47:54;;;;;;;;;;;;;;;;;;4973792;28;1207;-71
2022/09/09 01:50:39;;;;;;;;;;;;;;;;;;4991365;28;1352;-71
2022/09/09 01:53:07;;;;;;;;;;;;;;;;;;4973474;28;1023;-71
2022/09/09 01:55:34;;;;;;;;;;;;;;;;;;4983715;28;1146;-70
2022/09/09 01:58:17;;;;;;;;;;;;;;;;;;4954470;28;1644;-71
2022/09/09 02:00:51;;;;;;;;;;;;;;;;;;4954063;28;1498;-69
2022/09/09 02:03:19;;;;;;;;;;;;;;;;;;4954119;28;1422;-71
2022/09/09 02:05:55;;;;;;;;;;;;;;;;;;4954026;28;1975;-71
2022/09/09 02:08:27;;;;;;;;;;;;;;;;;;4971722;28;1399;-70
2022/09/09 02:11:01;;;;;;;;;;;;;;;;;;4953961;28;1528;-69
2022/09/09 02:13:36;;;;;;;;;;;;;;;;;;4953884;28;1455;-75
2022/09/09 02:16:05;;;;;;;;;;;;;;;;;;4954376;28;991;-70
2022/09/09 02:18:33;;;;;;;;;;;;;;;;;;4953902;28;1332;-72
2022/09/09 02:21:00;;;;;;;;;;;;;;;;;;4953858;28;1287;-71
2022/09/09 02:23:26;;;;;;;;;;;;;;;;;;4953961;28;1501;-71
2022/09/09 02:25:55;;;;;;;;;;;;;;;;;;4953756;28;1987;-71
2022/09/09 02:28:24;;;;;;;;;;;;;;;;;;4953454;28;1523;-70
2022/09/09 02:30:54;;;;;;;;;;;;;;;;;;4953745;28;1503;-71
2022/09/09 02:33:23;;;;;;;;;;;;;;;;;;4953803;28;1196;-71
2022/09/09 02:35:50;;;;;;;;;;;;;;;;;;4953879;28;1736;-71
2022/09/09 02:38:19;;;;;;;;;;;;;;;;;;4953793;28;1367;-71
2022/09/09 02:40:59;;;;;;;;;;;;;;;;;;4970870;28;835;-70
2022/09/09 02:43:25;;;;;;;;;;;;;;;;;;4970905;28;889;-71
2022/09/09 02:45:52;;;;;;;;;;;;;;;;;;4953665;28;1975;-71
2022/09/09 02:48:22;;;;;;;;;;;;;;;;;;4953608;28;1151;-71
2022/09/09 02:50:58;;;;;;;;;;;;;;;;;;4953475;28;1487;-70
2022/09/09 02:53:29;;;;;;;;;;;;;;;;;;4953354;28;1355;-70
2022/09/09 02:55:56;;;;;;;;;;;;;;;;;;4964170;28;1300;-71
2022/09/09 02:58:24;;;;;;;;;;;;;;;;;;4973098;28;1218;-71
2022/09/09 03:00:57;;;;;;;;;;;;;;;;;;4972839;28;1386;-71
2022/09/09 03:03:23;;;;;;;;;;;;;;;;;;4972748;28;1291;-71
2022/09/09 03:05:52;;;;;;;;;;;;;;;;;;4972443;28;1915;-71
2022/09/09 03:08:18;;;;;;;;;;;;;;;;;;4972782;28;1157;-72
2022/09/09 03:10:45;;;;;;;;;;;;;;;;;;4972528;28;1885;-71
2022/09/09 03:13:15;;;;;;;;;;;;;;;;;;4972536;28;1301;-72
2022/09/09 03:15:41;;;;;;;;;;;;;;;;;;4972596;28;1297;-70
2022/09/09 03:18:11;;;;;;;;;;;;;;;;;;4972555;28;1283;-71
2022/09/09 03:20:38;;;;;;;;;;;;;;;;;;4990165;28;1337;-70
2022/09/09 03:23:05;;;;;;;;;;;;;;;;;;4989484;28;1060;-71
2022/09/09 03:25:32;;;;;;;;;;;;;;;;;;4972541;28;1619;-71
2022/09/09 03:28:00;;;;;;;;;;;;;;;;;;4972075;28;1915;-71
2022/09/09 03:30:27;;;;;;;;;;;;;;;;;;4972325;28;1482;-71
2022/09/09 03:32:56;;;;;;;;;;;;;;;;;;4971892;28;1214;-70
2022/09/09 03:35:26;;;;;;;;;;;;;;;;;;4972194;28;1171;-71
2022/09/09 03:37:52;;;;;;;;;;;;;;;;;;4972213;28;946;-71
2022/09/09 03:40:20;;;;;;;;;;;;;;;;;;4972173;28;1305;-70
2022/09/09 03:42:47;;;;;;;;;;;;;;;;;;4971809;28;1175;-71
2022/09/09 03:45:14;;;;;;;;;;;;;;;;;;4972272;28;933;-71
2022/09/09 03:47:41;;;;;;;;;;;;;;;;;;4971775;28;1911;-70
2022/09/09 03:50:09;;;;;;;;;;;;;;;;;;4989551;28;1266;-71
2022/09/09 03:52:37;;;;;;;;;;;;;;;;;;4971711;28;1276;-71
2022/09/09 03:55:05;;;;;;;;;;;;;;;;;;4968109;28;1455;-71
2022/09/09 03:57:34;;;;;;;;;;;;;;;;;;4951730;28;1227;-70
2022/09/09 04:00:01;;;;;;;;;;;;;;;;;;4948695;28;1545;-70
2022/09/09 04:02:31;;;;;;;;;;;;;;;;;;4974908;28;1459;-71
2022/09/09 04:04:57;;;;;;;;;;;;;;;;;;4984665;28;1430;-71
2022/09/09 04:07:25;;;;;;;;;;;;;;;;;;4995362;28;1965;-70
2022/09/09 04:09:51;;;;;;;;;;;;;;;;;;5008538;28;1820;-71
2022/09/09 04:12:18;;;;;;;;;;;;;;;;;;5007991;28;1553;-71
2022/09/09 04:14:47;;;;;;;;;;;;;;;;;;5001033;28;1468;-70
2022/09/09 04:17:14;;;;;;;;;;;;;;;;;;4992557;28;1416;-71
2022/09/09 04:19:42;;;;;;;;;;;;;;;;;;4974898;28;1517;-70
2022/09/09 04:22:08;;;;;;;;;;;;;;;;;;5012540;28;1495;-71
2022/09/09 04:24:35;;;;;;;;;;;;;;;;;;5026020;28;1363;-70
2022/09/09 04:27:01;;;;;;;;;;;;;;;;;;5009368;28;1906;-71
2022/09/09 04:29:28;;;;;;;;;;;;;;;;;;5050963;28;1472;-70
2022/09/09 04:31:55;;;;;;;;;;;;;;;;;;4974566;28;1492;-70
2022/09/09 04:34:21;;;;;;;;;;;;;;;;;;4993484;28;1199;-72
2022/09/09 04:36:48;;;;;;;;;;;;;;;;;;4951541;28;1480;-72
2022/09/09 04:39:14;;;;;;;;;;;;;;;;;;4976795;23;3645;-71
2022/09/09 04:41:40;;;;;;;;;;;;;;;;;;5062045;28;1411;-72
2022/09/09 04:44:07;;;;;;;;;;;;;;;;;;5063992;28;1535;-72
2022/09/09 04:46:34;;;;;;;;;;;;;;;;;;5029318;28;1919;-71
2022/09/09 04:49:01;;;;;;;;;;;;;;;;;;5000914;28;1458;-73
2022/09/09 04:51:32;;;;;;;;;;;;;;;;;;5003316;28;1609;-73
2022/09/09 04:53:59;;;;;;;;;;;;;;;;;;4986640;28;1418;-74
2022/09/09 04:56:26;;;;;;;;;;;;;;;;;;4968608;28;1365;-73
2022/09/09 04:58:56;;;;;;;;;;;;;;;;;;4965081;28;1523;-73
2022/09/09 05:01:27;;;;;;;;;;;;;;;;;;4961353;28;1113;-73
2022/09/09 05:04:01;;;;;;;;;;;;;;;;;;4961825;28;1267;-74
2022/09/09 05:06:28;;;;;;;;;;;;;;;;;;4960507;28;1918;-74
2022/09/09 05:08:58;;;;;;;;;;;;;;;;;;4960038;28;1459;-74
2022/09/09 05:11:29;;;;;;;;;;;;;;;;;;4951569;28;1208;-73
2022/09/09 05:14:01;;;;;;;;;;;;;;;;;;4951548;28;859;-73
2022/09/09 05:16:29;;;;;;;;;;;;;;;;;;4953996;28;1296;-73
2022/09/09 05:18:56;;;;;;;;;;;;;;;;;;4954503;28;1424;-73
2022/09/09 05:21:24;;;;;;;;;;;;;;;;;;4955053;28;1258;-72
2022/09/09 05:23:51;;;;;;;;;;;;;;;;;;4955786;28;1305;-73
2022/09/09 05:26:19;;;;;;;;;;;;;;;;;;4954028;28;1923;-71
2022/09/09 05:28:47;;;;;;;;;;;;;;;;;;5009399;28;1392;-73
2022/09/09 05:31:14;;;;;;;;;;;;;;;;;;5005078;28;1409;-72
2022/09/09 05:33:42;;;;;;;;;;;;;;;;;;5035169;28;1428;-74
2022/09/09 05:36:10;;;;;;;;;;;;;;;;;;4992683;28;1174;-70
2022/09/09 05:38:38;;;;;;;;;;;;;;;;;;4987013;28;1443;-75
2022/09/09 05:41:05;;;;;;;;;;;;;;;;;;5018448;28;1408;-72
2022/09/09 05:43:32;;;;;;;;;;;;;;;;;;5056019;28;1300;-71
2022/09/09 05:46:04;;;;;;;;;;;;;;;;;;5053797;28;1321;-74
2022/09/09 05:48:31;;;;;;;;;;;;;;;;;;5032771;28;1975;-71
2022/09/09 05:50:58;;;;;;;;;;;;;;;;;;5014330;28;1386;-72
2022/09/09 05:53:24;;;;;;;;;;;;;;;;;;4992876;28;1427;-72
2022/09/09 05:55:58;;;;;;;;;;;;;;;;;;5045029;28;1637;-72
2022/09/09 05:58:25;;;;;;;;;;;;;;;;;;5019049;28;1563;-73
2022/09/09 06:00:51;;;;;;;;;;;;;;;;;;5002811;28;1175;-74
2022/09/09 06:03:17;;;;;;;;;;;;;;;;;;4972921;28;1373;-74
2022/09/09 06:05:44;;;;;;;;;;;;;;;;;;4973605;28;1373;-72
2022/09/09 06:08:10;;;;;;;;;;;;;;;;;;4990708;28;1922;-71
2022/09/09 06:10:36;;;;;;;;;;;;;;;;;;4990811;28;1024;-72
2022/09/09 06:13:04;;;;;;;;;;;;;;;;;;4978012;28;1411;-72
2022/09/09 06:15:31;;;;;;;;;;;;;;;;;;5033473;28;1573;-74
2022/09/09 06:17:57;;;;;;;;;;;;;;;;;;5029328;28;1324;-73
2022/09/09 06:20:24;;;;;;;;;;;;;;;;;;4973315;28;1390;-74
2022/09/09 06:22:51;;;;;;;;;;;;;;;;;;4973163;28;1442;-73
2022/09/09 06:25:18;;;;;;;;;;;;;;;;;;4973457;28;1193;-71
2022/09/09 06:27:49;;;;;;;;;;;;;;;;;;5006668;28;1927;-74
2022/09/09 06:30:18;;;;;;;;;;;;;;;;;;5032726;28;1290;-73
2022/09/09 06:32:44;;;;;;;;;;;;;;;;;;5074773;28;1434;-73
2022/09/09 06:35:11;;;;;;;;;;;;;;;;;;5074824;28;1338;-74
2022/09/09 06:37:37;;;;;;;;;;;;;;;;;;5046752;28;1417;-73
2022/09/09 06:40:03;;;;;;;;;;;;;;;;;;5032653;28;1250;-73
2022/09/09 06:42:29;;;;;;;;;;;;;;;;;;5017355;28;1525;-73
2022/09/09 06:45:06;;;;;;;;;;;;;;;;;;4979339;28;1394;-73
2022/09/09 06:47:40;;;;;;;;;;;;;;;;;;5011627;28;1926;-72
2022/09/09 06:50:07;;;;;;;;;;;;;;;;;;5005593;28;1578;-74
2022/09/09 06:52:35;;;;;;;;;;;;;;;;;;5009841;28;1947;-73
2022/09/09 06:55:02;;;;;;;;;;;;;;;;;;5041509;28;1226;-73
2022/09/09 06:57:30;;;;;;;;;;;;;;;;;;5023880;28;1375;-74
2022/09/09 06:59:57;;;;;;;;;;;;;;;;;;5030012;28;1498;-73
2022/09/09 07:02:24;;;;;;;;;;;;;;;;;;5014015;28;1593;-73
2022/09/09 07:04:52;;;;;;;;;;;;;;;;;;5078392;28;1391;-73
2022/09/09 07:07:19;;;;;;;;;;;;;;;;;;5049768;28;1976;-73
2022/09/09 07:09:46;;;;;;;;;;;;;;;;;;5012416;28;1631;-73
2022/09/09 07:12:12;;;;;;;;;;;;;;;;;;5074994;28;1179;-74
2022/09/09 07:14:44;;;;;;;;;;;;;;;;;;5050800;28;1484;-72
2022/09/09 07:17:10;;;;;;;;;;;;;;;;;;5002620;28;1411;-73
2022/09/09 07:19:39;;;;;;;;;;;;;;;;;;5026073;28;1407;-73
2022/09/09 07:22:07;;;;;;;;;;;;;;;;;;4972161;28;1151;-73
2022/09/09 07:24:35;;;;;;;;;;;;;;;;;;4982569;28;1771;-73
2022/09/09 07:27:03;;;;;;;;;;;;;;;;;;5035256;28;1977;-71
2022/09/09 07:29:29;;;;;;;;;;;;;;;;;;5013768;28;1598;-73
2022/09/09 07:31:56;;;;;;;;;;;;;;;;;;5039963;28;1520;-73
2022/09/09 07:34:27;;;;;;;;;;;;;;;;;;5046669;28;1516;-73
2022/09/09 07:36:54;;;;;;;;;;;;;;;;;;5022187;28;1471;-72
2022/09/09 07:39:21;;;;;;;;;;;;;;;;;;4998618;28;1587;-70
2022/09/09 07:41:51;;;;;;;;;;;;;;;;;;5012680;28;1554;-70
2022/09/09 07:44:22;;;;;;;;;;;;;;;;;;4993379;28;1388;-73
2022/09/09 07:46:51;;;;;;;;;;;;;;;;;;4982288;28;1719;-72
2022/09/09 07:49:22;;;;;;;;;;;;;;;;;;4972311;28;2009;-72
2022/09/09 07:51:49;;;;;;;;;;;;;;;;;;5063248;28;1445;-72
2022/09/09 07:54:17;;;;;;;;;;;;;;;;;;4990860;28;1475;-72
2022/09/09 07:56:46;;;;;;;;;;;;;;;;;;4982788;28;1697;-72
2022/09/09 07:59:13;;;;;;;;;;;;;;;;;;5018446;28;1597;-72
2022/09/09 08:01:42;;;;;;;;;;;;;;;;;;4987629;28;1683;-73
2022/09/09 08:04:09;;;;;;;;;;;;;;;;;;4988603;28;945;-73
2022/09/09 08:06:37;;;;;;;;;;;;;;;;;;5050268;28;1403;-73
2022/09/09 08:09:03;;;;;;;;;;;;;;;;;;4971783;28;1960;-73
2022/09/09 08:11:32;;;;;;;;;;;;;;;;;;5004980;28;1580;-72
2022/09/09 08:14:00;;;;;;;;;;;;;;;;;;5015801;28;1100;-72
2022/09/09 08:16:27;;;;;;;;;;;;;;;;;;5014537;28;1383;-72
2022/09/09 08:18:54;;;;;;;;;;;;;;;;;;4990608;28;1434;-72
2022/09/09 08:21:23;;;;;;;;;;;;;;;;;;4992944;28;1578;-73
2022/09/09 08:23:51;;;;;;;;;;;;;;;;;;4994173;28;1582;-73
2022/09/09 08:26:19;;;;;;;;;;;;;;;;;;4988304;28;1366;-73
2022/09/09 08:28:45;;;;;;;;;;;;;;;;;;4984072;28;1981;-74
2022/09/09 08:31:14;;;;;;;;;;;;;;;;;;5080609;28;1333;-73
2022/09/09 08:33:41;;;;;;;;;;;;;;;;;;5073097;28;1503;-73
2022/09/09 08:36:09;;;;;;;;;;;;;;;;;;5072702;28;1323;-73
2022/09/09 08:38:35;;;;;;;;;;;;;;;;;;5073708;28;1457;-73
2022/09/09 08:41:13;;;;;;;;;;;;;;;;;;5029854;28;1638;-73
2022/09/09 08:43:39;;;;;;;;;;;;;;;;;;5016558;28;1622;-73
2022/09/09 08:46:07;;;;;;;;;;;;;;;;;;5011190;28;1632;-73
2022/09/09 08:48:43;;;;;;;;;;;;;;;;;;5039790;28;1918;-73
2022/09/09 08:51:10;;;;;;;;;;;;;;;;;;5074409;28;1343;-73
2022/09/09 08:53:39;;;;;;;;;;;;;;;;;;5076563;28;1549;-73
2022/09/09 08:56:09;;;;;;;;;;;;;;;;;;5031750;28;1823;-73
2022/09/09 08:58:44;;;;;;;;;;;;;;;;;;5084613;28;1779;-73
2022/09/09 09:01:16;;;;;;;;;;;;;;;;;;4998058;28;1197;-73
2022/09/09 09:03:50;;;;;;;;;;;;;;;;;;5075886;28;1230;-72
2022/09/09 09:06:21;;;;;;;;;;;;;;;;;;5015103;28;1827;-73
2022/09/09 09:08:48;;;;;;;;;;;;;;;;;;5053130;28;1914;-73
2022/09/09 09:11:14;;;;;;;;;;;;;;;;;;5040311;28;1795;-73
2022/09/09 09:13:41;;;;;;;;;;;;;;;;;;5000443;28;1498;-73
2022/09/09 09:16:12;;;;;;;;;;;;;;;;;;5025114;28;1393;-73
2022/09/09 09:18:38;;;;;;;;;;;;;;;;;;5034454;28;1556;-74
2022/09/09 09:21:07;;;;;;;;;;;;;;;;;;5058531;28;1329;-73
2022/09/09 09:23:36;;;;;;;;;;;;;;;;;;5000859;28;1767;-73
2022/09/09 09:26:06;;;;;;;;;;;;;;;;;;4971299;28;1792;-71
2022/09/09 09:28:33;;;;;;;;;;;;;;;;;;4998996;28;1918;-73
2022/09/09 09:31:06;;;;;;;;;;;;;;;;;;5029970;28;1262;-73
2022/09/09 09:33:35;;;;;;;;;;;;;;;;;;5015786;28;1858;-73
2022/09/09 09:36:03;;;;;;;;;;;;;;;;;;5063338;28;1482;-73
2022/09/09 09:38:30;;;;;;;;;;;;;;;;;;5075853;28;1336;-73
2022/09/09 09:41:00;;;;;;;;;;;;;;;;;;5046587;28;1732;-73
2022/09/09 09:43:28;;;;;;;;;;;;;;;;;;5011038;28;1701;-73
2022/09/09 09:45:57;;;;;;;;;;;;;;;;;;5033240;28;1330;-73
2022/09/09 09:48:24;;;;;;;;;;;;;;;;;;5074986;28;1972;-73
2022/09/09 09:50:50;;;;;;;;;;;;;;;;;;5053717;28;1621;-72
2022/09/09 09:53:21;;;;;;;;;;;;;;;;;;5030375;28;1319;-71
2022/09/09 09:55:50;;;;;;;;;;;;;;;;;;5047931;28;1815;-72
2022/09/09 09:58:16;;;;;;;;;;;;;;;;;;4986116;28;1506;-72
2022/09/09 10:00:48;;;;;;;;;;;;;;;;;;5047183;28;1452;-73
2022/09/09 10:03:20;;;;;;;;;;;;;;;;;;4975034;28;1339;-72
2022/09/09 10:05:46;;;;;;;;;;;;;;;;;;5074854;28;1694;-73
2022/09/09 10:08:13;;;;;;;;;;;;;;;;;;5002309;28;1976;-74
2022/09/09 10:10:46;;;;;;;;;;;;;;;;;;5043241;28;1783;-74
2022/09/09 10:13:15;;;;;;;;;;;;;;;;;;5028159;28;1640;-73
2022/09/09 10:15:43;;;;;;;;;;;;;;;;;;5032821;28;1138;-73
2022/09/09 10:18:20;;;;;;;;;;;;;;;;;;5004049;28;1771;-73
2022/09/09 10:20:47;;;;;;;;;;;;;;;;;;5071528;28;1077;-74
2022/09/09 10:23:17;;;;;;;;;;;;;;;;;;5083046;28;1823;-73
2022/09/09 10:25:59;;;;;;;;;;;;;;;;;;5029578;28;1654;-74
2022/09/09 10:28:33;;;;;;;;;;;;;;;;;;4970650;28;1952;-73
2022/09/09 10:31:02;;;;;;;;;;;;;;;;;;4969348;28;1060;-73
2022/09/09 10:33:29;;;;;;;;;;;;;;;;;;4979704;28;1092;-74
2022/09/09 10:35:57;;;;;;;;;;;;;;;;;;4990141;28;949;-74
2022/09/09 10:38:25;;;;;;;;;;;;;;;;;;4990236;28;1310;-74
2022/09/09 10:41:15;;;;;;;;;;;;;;;;;;4990073;28;1236;-73
2022/09/09 10:43:53;;;;;;;;;;;;;;;;;;4994576;28;1179;-74
2022/09/09 10:46:22;;;;;;;;;;;;;;;;;;4979984;28;1456;-73
2022/09/09 10:48:52;;;;;;;;;;;;;;;;;;4989799;28;1919;-73
2022/09/09 10:51:22;;;;;;;;;;;;;;;;;;4969790;28;1115;-73
2022/09/09 10:53:51;;;;;;;;;;;;;;;;;;4972987;28;1398;-73
2022/09/09 10:56:18;;;;;;;;;;;;;;;;;;5003816;28;1452;-74
2022/09/09 10:58:45;;;;;;;;;;;;;;;;;;5024155;22;2028;-76
2022/09/09 11:01:15;;;;;;;;;;;;;;;;;;4950610;28;1326;-74
2022/09/09 11:03:42;;;;;;;;;;;;;;;;;;4946393;28;1387;-75
2022/09/09 11:06:10;;;;;;;;;;;;;;;;;;4951509;28;1338;-75
2022/09/09 11:08:38;;;;;;;;;;;;;;;;;;4970261;28;1972;-75
2022/09/09 11:11:05;;;;;;;;;;;;;;;;;;4963427;28;1409;-75
2022/09/09 11:13:33;;;;;;;;;;;;;;;;;;4941382;28;1269;-75
2022/09/09 11:16:00;;;;;;;;;;;;;;;;;;4934284;28;1108;-74
2022/09/09 11:18:28;;;;;;;;;;;;;;;;;;4934149;29;1371;-74
2022/09/09 11:20:58;;;;;;;;;;;;;;;;;;4951924;28;1465;-75
2022/09/09 11:23:25;;;;;;;;;;;;;;;;;;4946517;29;1435;-74
2022/09/09 11:25:52;;;;;;;;;;;;;;;;;;4951512;29;1131;-75
2022/09/09 11:28:23;;;;;;;;;;;;;;;;;;4964827;28;1919;-75
2022/09/09 11:30:51;;;;;;;;;;;;;;;;;;4963805;28;1465;-74
2022/09/09 11:33:29;;;;;;;;;;;;;;;;;;4939046;28;1431;-75
2022/09/09 11:36:02;;;;;;;;;;;;;;;;;;4959363;28;1324;-75
2022/09/09 11:38:28;;;;;;;;;;;;;;;;;;4970301;28;1582;-75
2022/09/09 11:40:56;;;;;;;;;;;;;;;;;;4958361;28;1072;-74
2022/09/09 11:43:23;;;;;;;;;;;;;;;;;;4969304;28;886;-75
2022/09/09 11:45:52;;;;;;;;;;;;;;;;;;4952182;28;1323;-74
2022/09/09 11:48:32;;;;;;;;;;;;;;;;;;4952487;28;1907;-75
2022/09/09 11:51:00;;;;;;;;;;;;;;;;;;4957306;28;1361;-75
2022/09/09 11:53:27;;;;;;;;;;;;;;;;;;4960955;28;1697;-74
2022/09/09 11:56:03;;;;;;;;;;;;;;;;;;4969442;28;1056;-74
2022/09/09 11:58:37;;;;;;;;;;;;;;;;;;4954238;28;1487;-75
2022/09/09 12:01:13;;;;;;;;;;;;;;;;;;4933195;29;1301;-75
2022/09/09 12:03:41;;;;;;;;;;;;;;;;;;4950066;29;1147;-74
2022/09/09 12:06:14;;;;;;;;;;;;;;;;;;4950626;28;1535;-75
2022/09/09 12:08:41;;;;;;;;;;;;;;;;;;4942661;28;1994;-75
2022/09/09 12:11:07;;;;;;;;;;;;;;;;;;4959145;28;1179;-75
2022/09/09 12:13:33;;;;;;;;;;;;;;;;;;4931860;28;1429;-74
2022/09/09 12:16:02;;;;;;;;;;;;;;;;;;4940009;28;1407;-75
2022/09/09 12:18:33;;;;;;;;;;;;;;;;;;4937930;28;1470;-75
2022/09/09 12:21:01;;;;;;;;;;;;;;;;;;4947546;28;1138;-74
2022/09/09 12:23:32;;;;;;;;;;;;;;;;;;4972422;28;1107;-75
2022/09/09 12:26:04;;;;;;;;;;;;;;;;;;4942393;28;1465;-75
2022/09/09 12:28:41;;;;;;;;;;;;;;;;;;4943180;28;1964;-76
2022/09/09 12:31:09;;;;;;;;;;;;;;;;;;4950260;28;1499;-75
2022/09/09 12:33:36;;;;;;;;;;;;;;;;;;4943852;28;1376;-76
2022/09/09 12:36:04;;;;;;;;;;;;;;;;;;4934835;28;1525;-75
2022/09/09 12:38:33;;;;;;;;;;;;;;;;;;4960883;28;1364;-76
2022/09/09 12:41:00;;;;;;;;;;;;;;;;;;4952240;28;1581;-75
2022/09/09 12:43:27;;;;;;;;;;;;;;;;;;4942068;28;1448;-76
2022/09/09 12:45:57;;;;;;;;;;;;;;;;;;4955610;28;1588;-76
2022/09/09 12:48:23;;;;;;;;;;;;;;;;;;4930440;29;1381;-76
2022/09/09 12:50:50;;;;;;;;;;;;;;;;;;4941827;28;1978;-75
2022/09/09 12:53:17;;;;;;;;;;;;;;;;;;4959842;28;1174;-76
2022/09/09 12:55:51;;;;;;;;;;;;;;;;;;4951435;28;1130;-76
2022/09/09 12:58:18;;;;;;;;;;;;;;;;;;4939676;28;1445;-76
2022/09/09 13:00:50;;;;;;;;;;;;;;;;;;4963854;28;1159;-76
2022/09/09 13:03:17;;;;;;;;;;;;;;;;;;4958698;28;1380;-76
2022/09/09 13:05:43;;;;;;;;;;;;;;;;;;4948088;28;1199;-76
2022/09/09 13:08:11;;;;;;;;;;;;;;;;;;4932495;28;1310;-76
2022/09/09 13:10:38;;;;;;;;;;;;;;;;;;4949157;29;1919;-75
2022/09/09 13:13:07;;;;;;;;;;;;;;;;;;4931911;29;1317;-75
2022/09/09 13:15:33;;;;;;;;;;;;;;;;;;4951138;28;1409;-76
2022/09/09 13:18:00;;;;;;;;;;;;;;;;;;4949044;29;1331;-76
2022/09/09 13:20:27;;;;;;;;;;;;;;;;;;4948851;29;1531;-75
2022/09/09 13:22:53;;;;;;;;;;;;;;;;;;4949337;29;1075;-75
2022/09/09 13:25:21;;;;;;;;;;;;;;;;;;4949108;29;1060;-76
2022/09/09 13:27:53;;;;;;;;;;;;;;;;;;4949340;29;1072;-76
2022/09/09 13:30:23;;;;;;;;;;;;;;;;;;4923333;28;1976;-74
2022/09/09 13:33:00;;;;;;;;;;;;;;;;;;4956270;28;1480;-75
2022/09/09 13:35:27;;;;;;;;;;;;;;;;;;4932896;28;1398;-75
2022/09/09 13:37:53;;;;;;;;;;;;;;;;;;4967808;28;1432;-75
2022/09/09 13:40:21;;;;;;;;;;;;;;;;;;4965116;28;1467;-75
2022/09/09 13:42:47;;;;;;;;;;;;;;;;;;4941096;28;1683;-75
2022/09/09 13:45:15;;;;;;;;;;;;;;;;;;4954290;28;1380;-75
2022/09/09 13:47:43;;;;;;;;;;;;;;;;;;4962588;28;1409;-75
2022/09/09 13:50:20;;;;;;;;;;;;;;;;;;4960011;28;1915;-75
2022/09/09 13:52:47;;;;;;;;;;;;;;;;;;4959534;28;1555;-75
2022/09/09 13:55:13;;;;;;;;;;;;;;;;;;4936833;28;1503;-75
2022/09/09 13:57:39;;;;;;;;;;;;;;;;;;4939682;28;1382;-75
2022/09/09 14:00:07;;;;;;;;;;;;;;;;;;4959261;28;1439;-74
2022/09/09 14:02:33;;;;;;;;;;;;;;;;;;4963746;28;1438;-76
2022/09/09 14:05:00;;;;;;;;;;;;;;;;;;4939740;28;1430;-75
2022/09/09 14:07:27;;;;;;;;;;;;;;;;;;4962550;28;1337;-76
2022/09/09 14:09:53;;;;;;;;;;;;;;;;;;4960111;28;1970;-75
2022/09/09 14:12:19;;;;;;;;;;;;;;;;;;4958181;28;1344;-75
2022/09/09 14:14:46;;;;;;;;;;;;;;;;;;4941504;29;1431;-76
2022/09/09 14:17:12;;;;;;;;;;;;;;;;;;4961957;28;1630;-77
2022/09/09 14:19:38;;;;;;;;;;;;;;;;;;4961809;28;1574;-76
2022/09/09 14:22:06;;;;;;;;;;;;;;;;;;4950877;28;1434;-76
2022/09/09 14:24:32;;;;;;;;;;;;;;;;;;4951842;28;1546;-75
2022/09/09 14:26:59;;;;;;;;;;;;;;;;;;4949963;28;1427;-76
2022/09/09 14:29:26;;;;;;;;;;;;;;;;;;4951601;28;1923;-75
2022/09/09 14:31:52;;;;;;;;;;;;;;;;;;4953790;28;1607;-75
2022/09/09 14:34:18;;;;;;;;;;;;;;;;;;4940274;28;1183;-76
2022/09/09 14:36:45;;;;;;;;;;;;;;;;;;4942030;28;1506;-76
2022/09/09 14:39:13;;;;;;;;;;;;;;;;;;4952518;28;1453;-75
2022/09/09 14:41:39;;;;;;;;;;;;;;;;;;4960159;28;1417;-76
2022/09/09 14:44:05;;;;;;;;;;;;;;;;;;4940177;28;1418;-77
2022/09/09 14:46:32;;;;;;;;;;;;;;;;;;4941656;29;1523;-75
2022/09/09 14:48:59;;;;;;;;;;;;;;;;;;4958566;28;1471;-75
2022/09/09 14:51:27;;;;;;;;;;;;;;;;;;4961613;28;1915;-77
2022/09/09 14:53:53;;;;;;;;;;;;;;;;;;4938131;28;1417;-75
2022/09/09 14:56:22;;;;;;;;;;;;;;;;;;4954495;28;1670;-77
2022/09/09 14:58:49;;;;;;;;;;;;;;;;;;4958659;28;1455;-75
2022/09/09 15:01:15;;;;;;;;;;;;;;;;;;4940492;28;1425;-75
2022/09/09 15:03:49;;;;;;;;;;;;;;;;;;4958518;28;1068;-76
2022/09/09 15:06:15;;;;;;;;;;;;;;;;;;4957461;28;1405;-76
2022/09/09 15:08:42;;;;;;;;;;;;;;;;;;4956056;28;1301;-76
2022/09/09 15:11:08;;;;;;;;;;;;;;;;;;4933619;29;2289;-75
2022/09/09 15:13:37;;;;;;;;;;;;;;;;;;4939520;28;1591;-77
2022/09/09 15:16:06;;;;;;;;;;;;;;;;;;4958718;28;1466;-75
2022/09/09 15:18:32;;;;;;;;;;;;;;;;;;4959110;28;1431;-76
2022/09/09 15:20:59;;;;;;;;;;;;;;;;;;4956457;28;1293;-75
2022/09/09 15:23:26;;;;;;;;;;;;;;;;;;4936701;28;1528;-76
2022/09/09 15:25:52;;;;;;;;;;;;;;;;;;4941780;28;1507;-75
2022/09/09 15:28:19;;;;;;;;;;;;;;;;;;4951604;28;1497;-76
2022/09/09 15:30:49;;;;;;;;;;;;;;;;;;4958811;28;1910;-75
2022/09/09 15:33:15;;;;;;;;;;;;;;;;;;4956157;28;1473;-76
2022/09/09 15:35:41;;;;;;;;;;;;;;;;;;4954803;28;1427;-75
2022/09/09 15:38:07;;;;;;;;;;;;;;;;;;4953162;28;1397;-77
2022/09/09 15:40:33;;;;;;;;;;;;;;;;;;4950574;29;1143;-76
2022/09/09 15:43:00;;;;;;;;;;;;;;;;;;4949946;28;1498;-77
2022/09/09 15:45:26;;;;;;;;;;;;;;;;;;4964586;28;1451;-76
2022/09/09 15:47:54;;;;;;;;;;;;;;;;;;4950692;29;791;-76
2022/09/09 15:50:21;;;;;;;;;;;;;;;;;;4949696;29;1914;-76
2022/09/09 15:52:47;;;;;;;;;;;;;;;;;;4940535;28;1365;-76
2022/09/09 15:55:13;;;;;;;;;;;;;;;;;;4957678;28;1586;-75
2022/09/09 15:57:40;;;;;;;;;;;;;;;;;;4963354;28;1483;-76
2022/09/09 16:00:07;;;;;;;;;;;;;;;;;;4932160;28;1354;-75
2022/09/09 16:02:34;;;;;;;;;;;;;;;;;;4954613;28;1647;-76
2022/09/09 16:05:01;;;;;;;;;;;;;;;;;;4957629;28;1346;-76
2022/09/09 16:07:28;;;;;;;;;;;;;;;;;;4962216;28;1214;-76
2022/09/09 16:09:54;;;;;;;;;;;;;;;;;;4968463;28;1914;-76
2022/09/09 16:12:21;;;;;;;;;;;;;;;;;;4952741;28;934;-77
2022/09/09 16:14:47;;;;;;;;;;;;;;;;;;4969879;28;1057;-75
2022/09/09 16:17:14;;;;;;;;;;;;;;;;;;4952954;28;1140;-77
2022/09/09 16:19:40;;;;;;;;;;;;;;;;;;4969896;28;1291;-76
2022/09/09 16:22:08;;;;;;;;;;;;;;;;;;4969902;28;823;-76
2022/09/09 16:24:34;;;;;;;;;;;;;;;;;;4969826;28;1016;-76
2022/09/09 16:27:00;;;;;;;;;;;;;;;;;;4969933;28;1123;-76
2022/09/09 16:29:27;;;;;;;;;;;;;;;;;;4969744;28;1307;-76
2022/09/09 16:31:53;;;;;;;;;;;;;;;;;;4952449;28;1918;-76
2022/09/09 16:34:20;;;;;;;;;;;;;;;;;;4969735;28;814;-76
2022/09/09 16:36:46;;;;;;;;;;;;;;;;;;4969854;28;843;-76
2022/09/09 16:39:14;;;;;;;;;;;;;;;;;;4969916;28;1275;-76
2022/09/09 16:41:41;;;;;;;;;;;;;;;;;;4950228;28;1440;-76
2022/09/09 16:44:08;;;;;;;;;;;;;;;;;;4952500;28;1341;-76
2022/09/09 16:46:35;;;;;;;;;;;;;;;;;;4941997;28;1294;-76
2022/09/09 16:49:01;;;;;;;;;;;;;;;;;;4967541;28;1277;-76
2022/09/09 16:51:30;;;;;;;;;;;;;;;;;;4967144;28;1972;-76
2022/09/09 16:53:56;;;;;;;;;;;;;;;;;;4959871;28;1349;-75
2022/09/09 16:56:25;;;;;;;;;;;;;;;;;;4953439;28;1476;-76
2022/09/09 16:58:51;;;;;;;;;;;;;;;;;;4955826;28;1352;-76
2022/09/09 17:01:18;;;;;;;;;;;;;;;;;;4953333;28;1361;-75
2022/09/09 17:03:44;;;;;;;;;;;;;;;;;;4955950;28;1183;-76
2022/09/09 17:06:11;;;;;;;;;;;;;;;;;;4948129;29;1139;-76
2022/09/09 17:08:37;;;;;;;;;;;;;;;;;;4929901;29;1436;-76
2022/09/09 17:11:04;;;;;;;;;;;;;;;;;;4954153;28;1993;-76